sensor_id;sensor_type;location;lat;lon;timestamp;temperature;humidity
7512;DHT22;9999;48.780;9.146;2022-08-21T00:00:54;17.80;99.90
7512;DHT22;9999;48.780;9.146;2022-08-21T00:03:21;17.80;99.90
7512;DHT22;9999;48.780;9.146;2022-08-21T00:05:50;17.80;99.90
7512;DHT22;9999;48.780;9.146;2022-08-21T00:08:19;17.80;99.90
7512;DHT22;9999;48.780;9.146;2022-08-21T00:10:46;17.80;99.90
7512;DHT22;9999;48.780;9.146;2022-08-21T00:13:14;17.70;99.90
7512;DHT22;9999;48.780;9.146;2022-08-21T00:15:42;17.60;99.90
7512;DHT22;9999;48.780;9.146;2022-08-21T00:18:10;17.60;99.90
7512;DHT22;9999;48.780;9.146;2022-08-21T00:20:38;17.60;99.90
7512;DHT22;9999;48.780;9.146;2022-08-21T00:23:05;17.60;99.90
7512;DHT22;9999;48.780;9.146;2022-08-21T00:25:34;17.60;99.90
7512;DHT22;9999;48.780;9.146;2022-08-21T00:28:01;17.60;99.90
7512;DHT22;9999;48.780;9.146;2022-08-21T00:30:29;17.60;99.90
7512;DHT22;9999;48.780;9.146;2022-08-21T00:32:57;17.60;99.90
7512;DHT22;9999;48.780;9.146;2022-08-21T00:35:27;17.60;99.90
7512;DHT22;9999;48.780;9.146;2022-08-21T00:37:54;17.50;99.90
7512;DHT22;9999;48.780;9.146;2022-08-21T00:40:24;17.50;99.90
7512;DHT22;9999;48.780;9.146;2022-08-21T00:42:53;17.50;99.90
7512;DHT22;9999;48.780;9.146;2022-08-21T00:45:20;17.40;99.90
7512;DHT22;9999;48.780;9.146;2022-08-21T00:47:48;17.50;99.90
7512;DHT22;9999;48.780;9.146;2022-08-21T00:50:15;17.40;99.90
7512;DHT22;9999;48.780;9.146;2022-08-21T00:52:43;17.40;99.90
7512;DHT22;9999;48.780;9.146;2022-08-21T00:55:11;17.40;99.90
7512;DHT22;9999;48.780;9.146;2022-08-21T00:57:43;17.40;99.90
7512;DHT22;9999;48.780;9.146;2022-08-21T01:00:15;17.30;99.90
7512;DHT22;9999;48.780;9.146;2022-08-21T01:02:43;17.30;99.90
7512;DHT22;9999;48.780;9.146;2022-08-21T01:05:11;17.30;99.90
7512;DHT22;9999;48.780;9.146;2022-08-21T01:07:38;17.30;99.90
7512;DHT22;9999;48.780;9.146;2022-08-21T01:10:06;17.30;99.90
7512;DHT22;9999;48.780;9.146;2022-08-21T01:12:34;17.30;99.90
7512;DHT22;9999;48.780;9.146;2022-08-21T01:15:02;17.20;99.90
7512;DHT22;9999;48.780;9.146;2022-08-21T01:17:31;17.30;99.90
7512;DHT22;9999;48.780;9.146;2022-08-21T01:19:59;17.30;99.90
7512;DHT22;9999;48.780;9.146;2022-08-21T01:22:27;17.30;99.90
7512;DHT22;9999;48.780;9.146;2022-08-21T01:24:54;17.20;99.90
7512;DHT22;9999;48.780;9.146;2022-08-21T01:27:21;17.20;99.90
7512;DHT22;9999;48.780;9.146;2022-08-21T01:29:52;17.20;99.90
7512;DHT22;9999;48.780;9.146;2022-08-21T01:32:21;17.10;99.90
7512;DHT22;9999;48.780;9.146;2022-08-21T01:34:49;17.00;99.90
7512;DHT22;9999;48.780;9.146;2022-08-21T01:37:17;17.10;99.90
7512;DHT22;9999;48.780;9.146;2022-08-21T01:39:46;17.10;99.90
7512;DHT22;9999;48.780;9.146;2022-08-21T01:42:14;17.10;99.90
7512;DHT22;9999;48.780;9.146;2022-08-21T01:44:42;17.00;99.90
7512;DHT22;9999;48.780;9.146;2022-08-21T01:47:10;17.10;99.90
7512;DHT22;9999;48.780;9.146;2022-08-21T01:49:38;17.00;99.90
7512;DHT22;9999;48.780;9.146;2022-08-21T01:52:06;17.00;99.90
7512;DHT22;9999;48.780;9.146;2022-08-21T01:54:33;16.90;99.90
7512;DHT22;9999;48.780;9.146;2022-08-21T01:57:02;16.90;99.90
7512;DHT22;9999;48.780;9.146;2022-08-21T01:59:29;16.80;99.90
7512;DHT22;9999;48.780;9.146;2022-08-21T02:01:56;16.80;99.90
7512;DHT22;9999;48.780;9.146;2022-08-21T02:04:23;16.80;99.90
7512;DHT22;9999;48.780;9.146;2022-08-21T02:06:50;16.80;99.90
7512;DHT22;9999;48.780;9.146;2022-08-21T02:09:17;16.80;99.90
7512;DHT22;9999;48.780;9.146;2022-08-21T02:11:44;16.80;99.90
7512;DHT22;9999;48.780;9.146;2022-08-21T02:14:14;16.80;99.90
7512;DHT22;9999;48.780;9.146;2022-08-21T02:16:42;16.80;99.90
7512;DHT22;9999;48.780;9.146;2022-08-21T02:19:10;16.80;99.90
7512;DHT22;9999;48.780;9.146;2022-08-21T02:21:37;16.80;99.90
7512;DHT22;9999;48.780;9.146;2022-08-21T02:24:05;16.60;99.90
7512;DHT22;9999;48.780;9.146;2022-08-21T02:26:31;16.70;99.90
7512;DHT22;9999;48.780;9.146;2022-08-21T02:28:58;16.70;99.90
7512;DHT22;9999;48.780;9.146;2022-08-21T02:31:26;16.60;99.90
7512;DHT22;9999;48.780;9.146;2022-08-21T02:33:54;16.60;99.90
7512;DHT22;9999;48.780;9.146;2022-08-21T02:36:21;16.60;99.90
7512;DHT22;9999;48.780;9.146;2022-08-21T02:38:48;16.50;99.90
7512;DHT22;9999;48.780;9.146;2022-08-21T02:41:17;16.50;99.90
7512;DHT22;9999;48.780;9.146;2022-08-21T02:43:45;16.50;99.90
7512;DHT22;9999;48.780;9.146;2022-08-21T02:46:13;16.40;99.90
7512;DHT22;9999;48.780;9.146;2022-08-21T02:48:42;16.40;99.90
7512;DHT22;9999;48.780;9.146;2022-08-21T02:51:12;16.40;99.90
7512;DHT22;9999;48.780;9.146;2022-08-21T02:53:39;16.40;99.90
7512;DHT22;9999;48.780;9.146;2022-08-21T02:56:09;16.50;99.90
7512;DHT22;9999;48.780;9.146;2022-08-21T02:58:40;16.50;99.90
7512;DHT22;9999;48.780;9.146;2022-08-21T03:01:08;16.50;99.90
7512;DHT22;9999;48.780;9.146;2022-08-21T03:03:36;16.40;99.90
7512;DHT22;9999;48.780;9.146;2022-08-21T03:06:06;16.30;99.90
7512;DHT22;9999;48.780;9.146;2022-08-21T03:08:33;16.20;99.90
7512;DHT22;9999;48.780;9.146;2022-08-21T03:11:00;16.10;99.90
7512;DHT22;9999;48.780;9.146;2022-08-21T03:13:27;16.20;99.90
7512;DHT22;9999;48.780;9.146;2022-08-21T03:15:54;16.20;99.90
7512;DHT22;9999;48.780;9.146;2022-08-21T03:18:22;16.20;99.90
7512;DHT22;9999;48.780;9.146;2022-08-21T03:20:49;16.20;99.90
7512;DHT22;9999;48.780;9.146;2022-08-21T03:23:18;16.20;99.90
7512;DHT22;9999;48.780;9.146;2022-08-21T03:25:46;16.30;99.90
7512;DHT22;9999;48.780;9.146;2022-08-21T03:28:15;16.30;99.90
7512;DHT22;9999;48.780;9.146;2022-08-21T03:30:43;16.30;99.90
7512;DHT22;9999;48.780;9.146;2022-08-21T03:33:11;16.20;99.90
7512;DHT22;9999;48.780;9.146;2022-08-21T03:35:38;16.20;99.90
7512;DHT22;9999;48.780;9.146;2022-08-21T03:38:05;16.20;99.90
7512;DHT22;9999;48.780;9.146;2022-08-21T03:40:34;16.20;99.90
7512;DHT22;9999;48.780;9.146;2022-08-21T03:43:01;16.10;99.90
7512;DHT22;9999;48.780;9.146;2022-08-21T03:45:27;16.10;99.90
7512;DHT22;9999;48.780;9.146;2022-08-21T03:47:56;16.10;99.90
7512;DHT22;9999;48.780;9.146;2022-08-21T03:50:26;16.10;99.90
7512;DHT22;9999;48.780;9.146;2022-08-21T03:52:55;16.10;99.90
7512;DHT22;9999;48.780;9.146;2022-08-21T03:55:23;16.10;99.90
7512;DHT22;9999;48.780;9.146;2022-08-21T03:57:51;16.10;99.90
7512;DHT22;9999;48.780;9.146;2022-08-21T04:00:20;16.00;99.90
7512;DHT22;9999;48.780;9.146;2022-08-21T04:02:47;16.10;99.90
7512;DHT22;9999;48.780;9.146;2022-08-21T04:05:15;16.00;99.90
7512;DHT22;9999;48.780;9.146;2022-08-21T04:07:53;16.00;99.90
7512;DHT22;9999;48.780;9.146;2022-08-21T04:10:20;16.00;99.90
7512;DHT22;9999;48.780;9.146;2022-08-21T04:12:47;16.00;99.90
7512;DHT22;9999;48.780;9.146;2022-08-21T04:15:15;15.90;99.90
7512;DHT22;9999;48.780;9.146;2022-08-21T04:17:42;15.90;99.90
7512;DHT22;9999;48.780;9.146;2022-08-21T04:20:09;15.90;99.90
7512;DHT22;9999;48.780;9.146;2022-08-21T04:22:36;15.80;99.90
7512;DHT22;9999;48.780;9.146;2022-08-21T04:25:03;15.80;99.90
7512;DHT22;9999;48.780;9.146;2022-08-21T04:27:30;15.70;99.90
7512;DHT22;9999;48.780;9.146;2022-08-21T04:29:57;15.70;99.90
7512;DHT22;9999;48.780;9.146;2022-08-21T04:32:26;15.60;99.90
7512;DHT22;9999;48.780;9.146;2022-08-21T04:34:59;15.60;99.90
7512;DHT22;9999;48.780;9.146;2022-08-21T04:37:26;15.60;99.90
7512;DHT22;9999;48.780;9.146;2022-08-21T04:39:54;15.60;99.90
7512;DHT22;9999;48.780;9.146;2022-08-21T04:42:22;15.60;99.90
7512;DHT22;9999;48.780;9.146;2022-08-21T04:44:49;15.60;99.90
7512;DHT22;9999;48.780;9.146;2022-08-21T04:47:16;15.60;99.90
7512;DHT22;9999;48.780;9.146;2022-08-21T04:49:44;15.60;99.90
7512;DHT22;9999;48.780;9.146;2022-08-21T04:52:12;15.60;99.90
7512;DHT22;9999;48.780;9.146;2022-08-21T04:54:41;15.50;99.90
7512;DHT22;9999;48.780;9.146;2022-08-21T04:57:09;15.50;99.90
7512;DHT22;9999;48.780;9.146;2022-08-21T04:59:39;15.50;99.90
7512;DHT22;9999;48.780;9.146;2022-08-21T05:02:07;15.50;99.90
7512;DHT22;9999;48.780;9.146;2022-08-21T05:04:41;15.50;99.90
7512;DHT22;9999;48.780;9.146;2022-08-21T05:07:14;15.50;99.90
7512;DHT22;9999;48.780;9.146;2022-08-21T05:09:42;15.50;99.90
7512;DHT22;9999;48.780;9.146;2022-08-21T05:12:09;15.50;99.90
7512;DHT22;9999;48.780;9.146;2022-08-21T05:14:36;15.50;99.90
7512;DHT22;9999;48.780;9.146;2022-08-21T05:17:03;15.50;99.90
7512;DHT22;9999;48.780;9.146;2022-08-21T05:19:30;15.50;99.90
7512;DHT22;9999;48.780;9.146;2022-08-21T05:21:57;15.60;99.90
7512;DHT22;9999;48.780;9.146;2022-08-21T05:24:25;15.60;99.90
7512;DHT22;9999;48.780;9.146;2022-08-21T05:26:52;15.60;99.90
7512;DHT22;9999;48.780;9.146;2022-08-21T05:29:19;15.60;99.90
7512;DHT22;9999;48.780;9.146;2022-08-21T05:31:47;15.60;99.90
7512;DHT22;9999;48.780;9.146;2022-08-21T05:34:17;15.70;99.90
7512;DHT22;9999;48.780;9.146;2022-08-21T05:36:44;15.70;99.90
7512;DHT22;9999;48.780;9.146;2022-08-21T05:39:11;15.70;99.90
7512;DHT22;9999;48.780;9.146;2022-08-21T05:41:39;15.70;99.90
7512;DHT22;9999;48.780;9.146;2022-08-21T05:44:06;15.70;99.90
7512;DHT22;9999;48.780;9.146;2022-08-21T05:46:33;15.70;99.90
7512;DHT22;9999;48.780;9.146;2022-08-21T05:49:00;15.80;99.90
7512;DHT22;9999;48.780;9.146;2022-08-21T05:51:26;15.70;99.90
7512;DHT22;9999;48.780;9.146;2022-08-21T05:53:53;15.80;99.90
7512;DHT22;9999;48.780;9.146;2022-08-21T05:56:20;15.90;99.90
7512;DHT22;9999;48.780;9.146;2022-08-21T05:58:48;15.90;99.90
7512;DHT22;9999;48.780;9.146;2022-08-21T06:01:15;16.00;99.90
7512;DHT22;9999;48.780;9.146;2022-08-21T06:03:42;16.00;99.90
7512;DHT22;9999;48.780;9.146;2022-08-21T06:06:09;16.10;99.90
7512;DHT22;9999;48.780;9.146;2022-08-21T06:08:36;16.20;99.90
7512;DHT22;9999;48.780;9.146;2022-08-21T06:11:05;16.20;99.90
7512;DHT22;9999;48.780;9.146;2022-08-21T06:13:32;16.30;99.90
7512;DHT22;9999;48.780;9.146;2022-08-21T06:16:07;16.40;99.90
7512;DHT22;9999;48.780;9.146;2022-08-21T06:18:35;16.40;99.90
7512;DHT22;9999;48.780;9.146;2022-08-21T06:21:03;16.50;99.90
7512;DHT22;9999;48.780;9.146;2022-08-21T06:23:29;16.60;99.90
7512;DHT22;9999;48.780;9.146;2022-08-21T06:25:57;16.70;99.90
7512;DHT22;9999;48.780;9.146;2022-08-21T06:28:23;16.80;99.90
7512;DHT22;9999;48.780;9.146;2022-08-21T06:30:50;17.00;99.90
7512;DHT22;9999;48.780;9.146;2022-08-21T06:33:18;17.20;99.90
7512;DHT22;9999;48.780;9.146;2022-08-21T06:35:45;17.50;99.90
7512;DHT22;9999;48.780;9.146;2022-08-21T06:38:12;17.70;99.90
7512;DHT22;9999;48.780;9.146;2022-08-21T06:40:39;17.90;99.90
7512;DHT22;9999;48.780;9.146;2022-08-21T06:43:08;18.10;99.90
7512;DHT22;9999;48.780;9.146;2022-08-21T06:45:35;18.30;99.90
7512;DHT22;9999;48.780;9.146;2022-08-21T06:48:03;18.60;99.90
7512;DHT22;9999;48.780;9.146;2022-08-21T06:50:31;18.90;99.90
7512;DHT22;9999;48.780;9.146;2022-08-21T06:52:59;19.10;99.90
7512;DHT22;9999;48.780;9.146;2022-08-21T06:55:27;19.40;99.90
7512;DHT22;9999;48.780;9.146;2022-08-21T06:57:54;19.60;99.90
7512;DHT22;9999;48.780;9.146;2022-08-21T07:00:20;19.90;99.90
7512;DHT22;9999;48.780;9.146;2022-08-21T07:02:47;20.30;99.90
7512;DHT22;9999;48.780;9.146;2022-08-21T07:05:14;20.50;99.90
7512;DHT22;9999;48.780;9.146;2022-08-21T07:07:43;20.70;99.90
7512;DHT22;9999;48.780;9.146;2022-08-21T07:10:09;20.90;99.90
7512;DHT22;9999;48.780;9.146;2022-08-21T07:12:36;20.90;99.90
7512;DHT22;9999;48.780;9.146;2022-08-21T07:15:04;21.20;99.90
7512;DHT22;9999;48.780;9.146;2022-08-21T07:17:31;21.40;99.90
7512;DHT22;9999;48.780;9.146;2022-08-21T07:19:57;21.90;99.90
7512;DHT22;9999;48.780;9.146;2022-08-21T07:22:24;22.30;99.90
7512;DHT22;9999;48.780;9.146;2022-08-21T07:24:54;22.50;99.90
7512;DHT22;9999;48.780;9.146;2022-08-21T07:27:21;22.50;99.90
7512;DHT22;9999;48.780;9.146;2022-08-21T07:29:47;22.80;99.90
7512;DHT22;9999;48.780;9.146;2022-08-21T07:32:14;23.40;99.90
7512;DHT22;9999;48.780;9.146;2022-08-21T07:34:41;23.40;99.90
7512;DHT22;9999;48.780;9.146;2022-08-21T07:37:08;23.60;99.90
7512;DHT22;9999;48.780;9.146;2022-08-21T07:39:35;23.10;99.90
7512;DHT22;9999;48.780;9.146;2022-08-21T07:42:03;23.50;99.90
7512;DHT22;9999;48.780;9.146;2022-08-21T07:44:30;23.90;99.90
7512;DHT22;9999;48.780;9.146;2022-08-21T07:46:57;24.10;99.90
7512;DHT22;9999;48.780;9.146;2022-08-21T07:49:24;24.30;99.90
7512;DHT22;9999;48.780;9.146;2022-08-21T07:51:50;24.50;99.90
7512;DHT22;9999;48.780;9.146;2022-08-21T07:54:17;24.60;99.90
7512;DHT22;9999;48.780;9.146;2022-08-21T07:56:44;24.80;99.90
7512;DHT22;9999;48.780;9.146;2022-08-21T07:59:12;24.90;99.90
7512;DHT22;9999;48.780;9.146;2022-08-21T08:01:39;24.80;99.90
7512;DHT22;9999;48.780;9.146;2022-08-21T08:04:06;24.50;99.90
7512;DHT22;9999;48.780;9.146;2022-08-21T08:06:32;24.60;99.90
7512;DHT22;9999;48.780;9.146;2022-08-21T08:08:59;24.40;99.90
7512;DHT22;9999;48.780;9.146;2022-08-21T08:11:27;24.30;99.90
7512;DHT22;9999;48.780;9.146;2022-08-21T08:13:54;24.50;99.90
7512;DHT22;9999;48.780;9.146;2022-08-21T08:16:24;24.90;99.90
7512;DHT22;9999;48.780;9.146;2022-08-21T08:18:50;25.00;99.90
7512;DHT22;9999;48.780;9.146;2022-08-21T08:21:18;25.00;99.90
7512;DHT22;9999;48.780;9.146;2022-08-21T08:23:46;24.90;99.90
7512;DHT22;9999;48.780;9.146;2022-08-21T08:26:13;24.90;99.90
7512;DHT22;9999;48.780;9.146;2022-08-21T08:28:41;24.60;99.90
7512;DHT22;9999;48.780;9.146;2022-08-21T08:31:07;24.70;99.90
7512;DHT22;9999;48.780;9.146;2022-08-21T08:33:35;24.80;99.90
7512;DHT22;9999;48.780;9.146;2022-08-21T08:36:03;24.80;99.30
7512;DHT22;9999;48.780;9.146;2022-08-21T08:38:29;24.70;98.60
7512;DHT22;9999;48.780;9.146;2022-08-21T08:41:01;24.50;99.90
7512;DHT22;9999;48.780;9.146;2022-08-21T08:43:32;24.60;99.90
7512;DHT22;9999;48.780;9.146;2022-08-21T08:46:04;24.50;99.90
7512;DHT22;9999;48.780;9.146;2022-08-21T08:48:45;24.70;99.90
7512;DHT22;9999;48.780;9.146;2022-08-21T08:51:17;24.90;98.50
7512;DHT22;9999;48.780;9.146;2022-08-21T08:53:51;25.00;97.60
7512;DHT22;9999;48.780;9.146;2022-08-21T08:56:25;25.10;98.10
7512;DHT22;9999;48.780;9.146;2022-08-21T08:58:53;25.30;98.40
7512;DHT22;9999;48.780;9.146;2022-08-21T09:01:22;25.10;96.50
7512;DHT22;9999;48.780;9.146;2022-08-21T09:03:50;25.10;95.60
7512;DHT22;9999;48.780;9.146;2022-08-21T09:06:28;25.30;95.60
7512;DHT22;9999;48.780;9.146;2022-08-21T09:09:05;25.10;94.40
7512;DHT22;9999;48.780;9.146;2022-08-21T09:11:41;25.00;95.30
7512;DHT22;9999;48.780;9.146;2022-08-21T09:14:14;25.00;94.40
7512;DHT22;9999;48.780;9.146;2022-08-21T09:16:47;25.20;94.30
7512;DHT22;9999;48.780;9.146;2022-08-21T09:19:39;25.30;94.40
7512;DHT22;9999;48.780;9.146;2022-08-21T09:22:19;25.30;94.60
7512;DHT22;9999;48.780;9.146;2022-08-21T09:24:56;25.30;94.00
7512;DHT22;9999;48.780;9.146;2022-08-21T09:27:26;25.40;94.40
7512;DHT22;9999;48.780;9.146;2022-08-21T09:29:54;25.50;94.60
7512;DHT22;9999;48.780;9.146;2022-08-21T09:32:28;25.50;93.10
7512;DHT22;9999;48.780;9.146;2022-08-21T09:34:59;25.50;93.40
7512;DHT22;9999;48.780;9.146;2022-08-21T09:37:28;25.80;94.10
7512;DHT22;9999;48.780;9.146;2022-08-21T09:39:56;25.60;91.80
7512;DHT22;9999;48.780;9.146;2022-08-21T09:42:25;25.60;91.50
7512;DHT22;9999;48.780;9.146;2022-08-21T09:45:08;25.80;92.90
7512;DHT22;9999;48.780;9.146;2022-08-21T09:47:35;26.00;91.10
7512;DHT22;9999;48.780;9.146;2022-08-21T09:50:13;26.20;90.80
7512;DHT22;9999;48.780;9.146;2022-08-21T09:52:46;26.20;90.00
7512;DHT22;9999;48.780;9.146;2022-08-21T09:55:20;26.00;89.00
7512;DHT22;9999;48.780;9.146;2022-08-21T09:58:06;26.00;90.20
7512;DHT22;9999;48.780;9.146;2022-08-21T10:00:35;26.00;91.10
7512;DHT22;9999;48.780;9.146;2022-08-21T10:03:14;26.20;88.10
7512;DHT22;9999;48.780;9.146;2022-08-21T10:05:53;26.30;85.60
7512;DHT22;9999;48.780;9.146;2022-08-21T10:08:21;26.20;87.80
7512;DHT22;9999;48.780;9.146;2022-08-21T10:10:51;26.60;87.90
7512;DHT22;9999;48.780;9.146;2022-08-21T10:13:22;26.70;87.00
7512;DHT22;9999;48.780;9.146;2022-08-21T10:16:00;27.00;85.00
7512;DHT22;9999;48.780;9.146;2022-08-21T10:18:36;27.00;83.80
7512;DHT22;9999;48.780;9.146;2022-08-21T10:21:13;27.10;84.90
7512;DHT22;9999;48.780;9.146;2022-08-21T10:23:58;27.10;80.80
7512;DHT22;9999;48.780;9.146;2022-08-21T10:26:33;27.00;82.40
7512;DHT22;9999;48.780;9.146;2022-08-21T10:29:05;27.00;82.10
7512;DHT22;9999;48.780;9.146;2022-08-21T10:31:44;26.80;84.00
7512;DHT22;9999;48.780;9.146;2022-08-21T10:34:21;27.00;82.80
7512;DHT22;9999;48.780;9.146;2022-08-21T10:37:01;27.10;79.90
7512;DHT22;9999;48.780;9.146;2022-08-21T10:39:34;27.00;82.00
7512;DHT22;9999;48.780;9.146;2022-08-21T10:42:17;26.90;80.90
7512;DHT22;9999;48.780;9.146;2022-08-21T10:44:56;27.00;79.70
7512;DHT22;9999;48.780;9.146;2022-08-21T10:47:32;26.90;81.00
7512;DHT22;9999;48.780;9.146;2022-08-21T10:50:07;27.00;78.50
7512;DHT22;9999;48.780;9.146;2022-08-21T10:52:53;27.10;79.90
7512;DHT22;9999;48.780;9.146;2022-08-21T10:55:26;27.30;78.50
7512;DHT22;9999;48.780;9.146;2022-08-21T10:57:58;27.50;79.60
7512;DHT22;9999;48.780;9.146;2022-08-21T11:00:32;27.60;78.40
7512;DHT22;9999;48.780;9.146;2022-08-21T11:03:04;27.70;79.30
7512;DHT22;9999;48.780;9.146;2022-08-21T11:05:35;27.80;77.30
7512;DHT22;9999;48.780;9.146;2022-08-21T11:08:09;27.80;76.60
7512;DHT22;9999;48.780;9.146;2022-08-21T11:10:41;27.80;75.00
7512;DHT22;9999;48.780;9.146;2022-08-21T11:13:15;28.00;76.30
7512;DHT22;9999;48.780;9.146;2022-08-21T11:15:48;27.80;73.60
7512;DHT22;9999;48.780;9.146;2022-08-21T11:18:22;27.60;72.40
7512;DHT22;9999;48.780;9.146;2022-08-21T11:20:59;27.40;72.30
7512;DHT22;9999;48.780;9.146;2022-08-21T11:23:37;27.60;77.30
7512;DHT22;9999;48.780;9.146;2022-08-21T11:26:08;27.70;72.00
7512;DHT22;9999;48.780;9.146;2022-08-21T11:28:41;27.90;74.40
7512;DHT22;9999;48.780;9.146;2022-08-21T11:31:23;28.00;71.00
7512;DHT22;9999;48.780;9.146;2022-08-21T11:34:03;27.90;70.00
7512;DHT22;9999;48.780;9.146;2022-08-21T11:36:36;27.90;68.60
7512;DHT22;9999;48.780;9.146;2022-08-21T11:39:17;27.80;73.10
7512;DHT22;9999;48.780;9.146;2022-08-21T11:41:54;28.00;72.20
7512;DHT22;9999;48.780;9.146;2022-08-21T11:44:29;28.40;72.00
7512;DHT22;9999;48.780;9.146;2022-08-21T11:47:03;28.40;70.00
7512;DHT22;9999;48.780;9.146;2022-08-21T11:49:53;28.60;67.80
7512;DHT22;9999;48.780;9.146;2022-08-21T11:52:29;29.00;71.30
7512;DHT22;9999;48.780;9.146;2022-08-21T11:55:03;29.30;68.00
7512;DHT22;9999;48.780;9.146;2022-08-21T11:57:35;29.00;69.40
7512;DHT22;9999;48.780;9.146;2022-08-21T12:00:07;28.90;66.30
7512;DHT22;9999;48.780;9.146;2022-08-21T12:02:48;29.20;71.50
7512;DHT22;9999;48.780;9.146;2022-08-21T12:05:25;29.30;66.80
7512;DHT22;9999;48.780;9.146;2022-08-21T12:08:03;29.40;65.50
7512;DHT22;9999;48.780;9.146;2022-08-21T12:10:36;29.20;64.50
7512;DHT22;9999;48.780;9.146;2022-08-21T12:13:10;29.60;65.70
7512;DHT22;9999;48.780;9.146;2022-08-21T12:15:39;29.50;65.90
7512;DHT22;9999;48.780;9.146;2022-08-21T12:18:22;29.10;64.10
7512;DHT22;9999;48.780;9.146;2022-08-21T12:21:02;29.00;63.20
7512;DHT22;9999;48.780;9.146;2022-08-21T12:23:31;28.40;65.10
7512;DHT22;9999;48.780;9.146;2022-08-21T12:26:23;28.00;62.70
7512;DHT22;9999;48.780;9.146;2022-08-21T12:28:50;27.80;65.50
7512;DHT22;9999;48.780;9.146;2022-08-21T12:31:22;27.60;64.70
7512;DHT22;9999;48.780;9.146;2022-08-21T12:33:56;27.70;65.90
7512;DHT22;9999;48.780;9.146;2022-08-21T12:36:40;27.80;65.00
7512;DHT22;9999;48.780;9.146;2022-08-21T12:39:14;27.50;63.90
7512;DHT22;9999;48.780;9.146;2022-08-21T12:41:49;27.40;65.10
7512;DHT22;9999;48.780;9.146;2022-08-21T12:44:20;27.40;67.30
7512;DHT22;9999;48.780;9.146;2022-08-21T12:46:52;27.90;68.30
7512;DHT22;9999;48.780;9.146;2022-08-21T12:49:27;28.20;65.90
7512;DHT22;9999;48.780;9.146;2022-08-21T12:52:04;28.20;64.20
7512;DHT22;9999;48.780;9.146;2022-08-21T12:54:39;28.30;63.40
7512;DHT22;9999;48.780;9.146;2022-08-21T12:57:16;28.50;66.30
7512;DHT22;9999;48.780;9.146;2022-08-21T12:59:44;28.60;65.30
7512;DHT22;9999;48.780;9.146;2022-08-21T13:02:16;28.90;65.20
7512;DHT22;9999;48.780;9.146;2022-08-21T13:04:44;29.10;61.50
7512;DHT22;9999;48.780;9.146;2022-08-21T13:07:14;29.10;62.40
7512;DHT22;9999;48.780;9.146;2022-08-21T13:09:46;29.00;62.50
7512;DHT22;9999;48.780;9.146;2022-08-21T13:12:16;29.00;62.20
7512;DHT22;9999;48.780;9.146;2022-08-21T13:14:45;28.90;62.10
7512;DHT22;9999;48.780;9.146;2022-08-21T13:17:14;28.40;61.80
7512;DHT22;9999;48.780;9.146;2022-08-21T13:19:53;28.10;63.80
7512;DHT22;9999;48.780;9.146;2022-08-21T13:22:19;28.00;63.80
7512;DHT22;9999;48.780;9.146;2022-08-21T13:24:47;27.70;62.00
7512;DHT22;9999;48.780;9.146;2022-08-21T13:27:24;27.40;63.40
7512;DHT22;9999;48.780;9.146;2022-08-21T13:30:08;27.30;64.70
7512;DHT22;9999;48.780;9.146;2022-08-21T13:32:39;27.40;62.30
7512;DHT22;9999;48.780;9.146;2022-08-21T13:35:13;27.50;63.80
7512;DHT22;9999;48.780;9.146;2022-08-21T13:37:41;27.70;63.60
7512;DHT22;9999;48.780;9.146;2022-08-21T13:40:11;27.90;64.00
7512;DHT22;9999;48.780;9.146;2022-08-21T13:42:42;28.30;63.90
7512;DHT22;9999;48.780;9.146;2022-08-21T13:45:15;28.40;61.40
7512;DHT22;9999;48.780;9.146;2022-08-21T13:47:42;28.30;60.20
7512;DHT22;9999;48.780;9.146;2022-08-21T13:50:12;28.30;59.10
7512;DHT22;9999;48.780;9.146;2022-08-21T13:52:49;28.20;60.90
7512;DHT22;9999;48.780;9.146;2022-08-21T13:55:17;28.30;61.00
7512;DHT22;9999;48.780;9.146;2022-08-21T13:57:46;28.40;60.60
7512;DHT22;9999;48.780;9.146;2022-08-21T14:00:17;28.60;59.70
7512;DHT22;9999;48.780;9.146;2022-08-21T14:02:46;28.60;59.30
7512;DHT22;9999;48.780;9.146;2022-08-21T14:05:20;28.40;59.90
7512;DHT22;9999;48.780;9.146;2022-08-21T14:07:49;28.50;59.70
7512;DHT22;9999;48.780;9.146;2022-08-21T14:10:19;28.40;60.30
7512;DHT22;9999;48.780;9.146;2022-08-21T14:12:50;28.70;59.40
7512;DHT22;9999;48.780;9.146;2022-08-21T14:15:21;28.90;59.80
7512;DHT22;9999;48.780;9.146;2022-08-21T14:17:48;29.00;60.60
7512;DHT22;9999;48.780;9.146;2022-08-21T14:20:26;29.10;60.10
7512;DHT22;9999;48.780;9.146;2022-08-21T14:22:54;29.00;58.90
7512;DHT22;9999;48.780;9.146;2022-08-21T14:25:29;28.80;57.20
7512;DHT22;9999;48.780;9.146;2022-08-21T14:28:02;28.70;58.30
7512;DHT22;9999;48.780;9.146;2022-08-21T14:30:31;28.60;59.90
7512;DHT22;9999;48.780;9.146;2022-08-21T14:32:59;28.60;59.00
7512;DHT22;9999;48.780;9.146;2022-08-21T14:35:26;28.80;59.70
7512;DHT22;9999;48.780;9.146;2022-08-21T14:37:52;28.90;60.10
7512;DHT22;9999;48.780;9.146;2022-08-21T14:40:21;28.90;58.60
7512;DHT22;9999;48.780;9.146;2022-08-21T14:42:48;28.90;59.10
7512;DHT22;9999;48.780;9.146;2022-08-21T14:45:18;29.00;59.30
7512;DHT22;9999;48.780;9.146;2022-08-21T14:47:47;28.90;58.30
7512;DHT22;9999;48.780;9.146;2022-08-21T14:50:14;28.80;58.40
7512;DHT22;9999;48.780;9.146;2022-08-21T14:52:41;28.70;58.20
7512;DHT22;9999;48.780;9.146;2022-08-21T14:55:09;28.70;59.20
7512;DHT22;9999;48.780;9.146;2022-08-21T14:57:39;28.40;56.80
7512;DHT22;9999;48.780;9.146;2022-08-21T15:00:10;28.40;58.80
7512;DHT22;9999;48.780;9.146;2022-08-21T15:02:38;28.20;57.50
7512;DHT22;9999;48.780;9.146;2022-08-21T15:05:06;28.30;57.80
7512;DHT22;9999;48.780;9.146;2022-08-21T15:07:33;28.40;58.60
7512;DHT22;9999;48.780;9.146;2022-08-21T15:10:00;28.50;58.30
7512;DHT22;9999;48.780;9.146;2022-08-21T15:12:27;28.50;57.60
7512;DHT22;9999;48.780;9.146;2022-08-21T15:14:54;28.40;56.00
7512;DHT22;9999;48.780;9.146;2022-08-21T15:17:21;28.50;56.40
7512;DHT22;9999;48.780;9.146;2022-08-21T15:19:49;28.30;56.10
7512;DHT22;9999;48.780;9.146;2022-08-21T15:22:16;28.30;56.80
7512;DHT22;9999;48.780;9.146;2022-08-21T15:24:43;28.40;56.20
7512;DHT22;9999;48.780;9.146;2022-08-21T15:27:10;28.40;55.80
7512;DHT22;9999;48.780;9.146;2022-08-21T15:29:38;28.30;56.90
7512;DHT22;9999;48.780;9.146;2022-08-21T15:32:17;28.30;55.70
7512;DHT22;9999;48.780;9.146;2022-08-21T15:34:44;28.30;56.70
7512;DHT22;9999;48.780;9.146;2022-08-21T15:37:12;28.30;58.10
7512;DHT22;9999;48.780;9.146;2022-08-21T15:39:42;28.30;56.10
7512;DHT22;9999;48.780;9.146;2022-08-21T15:42:10;28.30;56.60
7512;DHT22;9999;48.780;9.146;2022-08-21T15:44:38;28.10;56.10
7512;DHT22;9999;48.780;9.146;2022-08-21T15:47:06;28.10;56.50
7512;DHT22;9999;48.780;9.146;2022-08-21T15:49:33;28.20;56.80
7512;DHT22;9999;48.780;9.146;2022-08-21T15:51:59;28.10;57.20
7512;DHT22;9999;48.780;9.146;2022-08-21T15:54:27;28.20;56.30
7512;DHT22;9999;48.780;9.146;2022-08-21T15:56:54;28.10;56.50
7512;DHT22;9999;48.780;9.146;2022-08-21T15:59:21;28.10;56.40
7512;DHT22;9999;48.780;9.146;2022-08-21T16:01:49;28.00;55.80
7512;DHT22;9999;48.780;9.146;2022-08-21T16:04:21;27.80;55.20
7512;DHT22;9999;48.780;9.146;2022-08-21T16:06:48;27.60;56.70
7512;DHT22;9999;48.780;9.146;2022-08-21T16:09:16;27.70;56.60
7512;DHT22;9999;48.780;9.146;2022-08-21T16:11:44;27.60;57.40
7512;DHT22;9999;48.780;9.146;2022-08-21T16:14:12;27.50;55.10
7512;DHT22;9999;48.780;9.146;2022-08-21T16:16:40;27.50;55.70
7512;DHT22;9999;48.780;9.146;2022-08-21T16:19:07;27.40;56.50